Time;durP1;ratioP1;P1;durP2;ratioP2;P2;SDS_P1;SDS_P2;PMS_P1;PMS_P2;Temp;Humidity;BMP_temperature;BMP_pressure;BME280_temperature;BME280_humidity;BME280_pressure;Samples;Min_cycle;Max_cycle;Signal;HPM_P1;HPM_P2
2021/12/23 00:00:00;;;;;;;24.25;17.15;;;-3276.20;93.00;;;;;;5072352;28;20044;-80
2021/12/23 00:02:26;;;;;;;26.52;16.08;;;-3276.20;93.00;;;;;;5088735;28;20127;-79
2021/12/23 00:04:51;;;;;;;24.15;16.63;;;-3276.20;93.00;;;;;;5055862;28;20135;-78
2021/12/23 00:07:17;;;;;;;25.17;16.40;;;-3276.20;93.00;;;;;;5055269;28;20033;-77
2021/12/23 00:12:15;;;;;;;23.85;15.68;;;-3276.20;93.00;;;;;;5072438;28;20059;-80
2021/12/23 00:14:41;;;;;;;25.23;15.70;;;-3276.30;93.00;;;;;;5071814;28;20481;-78
2021/12/23 00:17:21;;;;;;;27.05;17.10;;;-3276.20;93.00;;;;;;5071997;28;20051;-78
2021/12/23 00:19:59;;;;;;;33.05;20.33;;;-3276.30;93.00;;;;;;5055322;28;20044;-79
2021/12/23 00:25:10;;;;;;;53.05;26.88;;;-3276.30;93.00;;;;;;5071715;28;20186;-79
2021/12/23 00:27:35;;;;;;;79.00;36.35;;;-3276.30;92.80;;;;;;5071643;28;20119;-81
2021/12/23 00:30:01;;;;;;;31.40;18.88;;;-3276.30;92.90;;;;;;5038666;28;20040;-78
2021/12/23 00:32:27;;;;;;;38.17;21.05;;;-3276.20;92.90;;;;;;5072018;28;20041;-77
2021/12/23 00:34:52;;;;;;;35.03;21.98;;;-3276.30;93.00;;;;;;5071731;28;20047;-78
2021/12/23 00:37:19;;;;;;;29.58;19.90;;;-3276.30;93.00;;;;;;5071988;28;20133;-78
2021/12/23 00:39:45;;;;;;;21.77;14.93;;;-3276.30;92.90;;;;;;5071583;28;20170;-78
2021/12/23 00:42:11;;;;;;;25.45;17.35;;;-3276.30;92.90;;;;;;5055288;28;20037;-78
2021/12/23 00:44:40;;;;;;;26.70;16.50;;;-3276.30;92.80;;;;;;5071870;28;20047;-78
2021/12/23 00:47:06;;;;;;;23.42;14.30;;;-3276.30;92.90;;;;;;5071955;28;20434;-79
2021/12/23 00:49:32;;;;;;;20.50;14.30;;;-3276.40;92.80;;;;;;5055592;28;20051;-79
2021/12/23 00:52:01;;;;;;;22.77;14.93;;;-3276.40;92.70;;;;;;5072090;28;20490;-78
2021/12/23 00:54:27;;;;;;;24.25;14.73;;;-3276.40;92.80;;;;;;5072171;28;20101;-78
2021/12/23 00:56:52;;;;;;;22.70;14.02;;;-3276.40;92.80;;;;;;5055265;28;20045;-79
2021/12/23 00:59:18;;;;;;;25.67;16.80;;;-3276.50;92.80;;;;;;5071574;28;20127;-79
2021/12/23 01:01:46;;;;;;;23.45;15.63;;;-3276.50;92.80;;;;;;5054928;28;20427;-76
2021/12/23 01:04:12;;;;;;;29.83;20.95;;;-3276.50;92.60;;;;;;5071423;28;20480;-79
2021/12/23 01:06:37;;;;;;;32.65;21.90;;;-3276.50;92.60;;;;;;5088546;28;20043;-78
2021/12/23 01:09:03;;;;;;;23.70;16.08;;;-3276.50;92.60;;;;;;5054784;28;20041;-78
2021/12/23 01:11:29;;;;;;;24.58;17.42;;;-3276.50;92.30;;;;;;5071037;28;20048;-77
2021/12/23 01:17:00;;;;;;;23.45;15.60;;;-3276.50;92.40;;;;;;5071023;28;20127;-78
2021/12/23 01:19:27;;;;;;;26.73;16.27;;;-3276.50;92.30;;;;;;5054950;28;20076;-78
2021/12/23 01:21:53;;;;;;;28.67;15.80;;;-3276.50;92.30;;;;;;5055539;28;20389;-76
2021/12/23 01:24:20;;;;;;;20.83;14.32;;;-3276.50;92.20;;;;;;5074969;28;20431;-79
2021/12/23 01:26:45;;;;;;;23.77;15.27;;;-3276.40;92.10;;;;;;5058892;28;20421;-77
2021/12/23 01:29:11;;;;;;;24.73;15.65;;;-3276.50;92.30;;;;;;5058352;28;20127;-76
2021/12/23 01:31:38;;;;;;;24.95;15.43;;;-3276.40;92.10;;;;;;5074613;28;20097;-77
2021/12/23 01:34:05;;;;;;;22.27;14.25;;;-3276.40;92.20;;;;;;5057001;28;20045;-77
2021/12/23 01:36:31;;;;;;;20.38;12.65;;;-3276.50;92.10;;;;;;5058227;28;20048;-78
2021/12/23 01:38:57;;;;;;;21.23;15.10;;;-3276.40;92.10;;;;;;5074865;28;20454;-80
2021/12/23 01:41:24;;;;;;;23.35;14.55;;;-3276.40;91.80;;;;;;5058408;28;20036;-80
2021/12/23 01:43:51;;;;;;;20.35;14.38;;;-3276.30;91.90;;;;;;5074831;28;20170;-79
2021/12/23 01:46:18;;;;;;;20.13;14.55;;;-3276.40;92.10;;;;;;5074778;28;20036;-78
2021/12/23 01:48:44;;;;;;;22.95;14.70;;;-3276.40;92.10;;;;;;5074395;28;20044;-79
2021/12/23 01:51:09;;;;;;;23.10;14.82;;;-3276.40;92.00;;;;;;5058029;28;20047;-78
2021/12/23 01:53:35;;;;;;;23.73;16.67;;;-3276.40;92.00;;;;;;5057726;28;20036;-77
2021/12/23 01:56:02;;;;;;;20.95;14.07;;;-3276.40;91.90;;;;;;5074607;28;20043;-77
2021/12/23 01:58:28;;;;;;;24.48;15.10;;;-3276.40;91.80;;;;;;5057783;28;20037;-78
2021/12/23 02:00:54;;;;;;;23.70;14.55;;;-3276.40;91.90;;;;;;5057581;28;20110;-78
2021/12/23 02:03:20;;;;;;;21.75;14.50;;;-3276.40;91.90;;;;;;5074249;28;20051;-77
2021/12/23 02:05:46;;;;;;;22.85;15.00;;;-3276.40;92.00;;;;;;5074149;28;20124;-78
2021/12/23 02:08:12;;;;;;;21.40;14.82;;;-3276.40;92.00;;;;;;5074030;28;20466;-77
2021/12/23 02:10:40;;;;;;;21.38;15.20;;;-3276.40;92.00;;;;;;5074499;28;20036;-79
2021/12/23 02:13:06;;;;;;;24.80;15.48;;;-3276.40;92.00;;;;;;5074324;28;20097;-80
2021/12/23 02:15:32;;;;;;;22.13;14.38;;;-3276.40;92.10;;;;;;5074472;28;20488;-77
2021/12/23 02:17:58;;;;;;;22.98;14.43;;;-3276.40;92.10;;;;;;5073634;28;20075;-78
2021/12/23 02:20:33;;;;;;;22.88;14.57;;;-3276.50;92.20;;;;;;5057685;28;20427;-76
2021/12/23 02:22:59;;;;;;;22.15;15.15;;;-3276.50;92.20;;;;;;5073992;28;20037;-79
2021/12/23 02:25:25;;;;;;;20.88;14.73;;;-3276.40;91.80;;;;;;5074369;28;20037;-76
2021/12/23 02:27:53;;;;;;;21.92;15.05;;;-3276.40;92.10;;;;;;5073983;28;20079;-78
2021/12/23 02:30:26;;;;;;;20.63;14.45;;;-3276.40;91.90;;;;;;5073756;28;20046;-77
2021/12/23 02:32:52;;;;;;;22.90;14.65;;;-3276.40;92.20;;;;;;5073389;28;20495;-79
2021/12/23 02:35:20;;;;;;;30.10;17.13;;;-3276.40;92.20;;;;;;5073167;28;20072;-79
2021/12/23 02:37:47;;;;;;;21.83;14.90;;;-3276.40;92.20;;;;;;5090570;28;20076;-80
2021/12/23 02:40:22;;;;;;;22.55;14.88;;;-3276.40;92.30;;;;;;5073233;28;20048;-79
2021/12/23 02:42:48;;;;;;;21.95;15.05;;;-3276.40;92.30;;;;;;5073823;28;20059;-77
2021/12/23 02:45:14;;;;;;;20.70;14.73;;;-3276.40;92.40;;;;;;5073382;28;20464;-78
2021/12/23 02:47:39;;;;;;;24.45;15.60;;;-3276.40;92.40;;;;;;5073259;28;20044;-79
2021/12/23 02:50:08;;;;;;;21.98;15.23;;;-3276.40;92.40;;;;;;5073340;28;20041;-78
2021/12/23 02:52:35;;;;;;;21.70;14.60;;;-3276.40;92.40;;;;;;5073395;28;20045;-76
2021/12/23 02:55:00;;;;;;;23.75;15.05;;;-3276.40;92.40;;;;;;5072974;28;20044;-77
2021/12/23 02:57:26;;;;;;;21.65;15.63;;;-3276.40;92.40;;;;;;5073306;28;20388;-77
2021/12/23 02:59:52;;;;;;;21.75;15.63;;;-3276.40;92.30;;;;;;5073022;28;20439;-76
2021/12/23 03:02:18;;;;;;;22.23;15.07;;;-3276.30;92.40;;;;;;5072633;28;20048;-78
2021/12/23 03:04:43;;;;;;;23.38;14.85;;;-3276.40;92.30;;;;;;5056758;28;20040;-79
2021/12/23 03:07:09;;;;;;;21.30;13.52;;;-3276.40;92.40;;;;;;5039479;28;20053;-76
2021/12/23 03:09:35;;;;;;;24.15;14.32;;;-3276.40;92.40;;;;;;5072688;28;20048;-79
2021/12/23 03:12:01;;;;;;;20.55;14.88;;;-3276.50;92.30;;;;;;5073097;28;20374;-79
2021/12/23 03:14:26;;;;;;;23.13;16.83;;;-3276.40;92.10;;;;;;5072438;28;20377;-76
2021/12/23 03:16:52;;;;;;;29.38;16.73;;;-3276.50;92.20;;;;;;5072549;28;20047;-78
2021/12/23 03:19:18;;;;;;;23.90;15.05;;;-3276.40;92.10;;;;;;5072603;28;20078;-77
2021/12/23 03:21:44;;;;;;;22.40;14.77;;;-3276.40;92.10;;;;;;5056324;28;20036;-79
2021/12/23 03:24:11;;;;;;;26.65;15.82;;;-3276.50;92.10;;;;;;5073033;28;20067;-78
2021/12/23 03:26:37;;;;;;;24.60;15.93;;;-3276.50;92.10;;;;;;5072809;28;20455;-78
2021/12/23 03:29:04;;;;;;;22.88;15.07;;;-3276.40;92.00;;;;;;5072520;28;20075;-78
2021/12/23 03:31:29;;;;;;;21.88;14.98;;;-3276.40;92.10;;;;;;5072612;28;20087;-79
2021/12/23 03:33:55;;;;;;;25.23;16.35;;;-3276.40;92.20;;;;;;5039403;28;20076;-77
2021/12/23 03:36:21;;;;;;;26.23;16.35;;;-3276.40;92.10;;;;;;5072587;28;20045;-78
2021/12/23 03:38:47;;;;;;;25.70;15.75;;;-3276.40;92.10;;;;;;5072140;28;20477;-78
2021/12/23 03:41:15;;;;;;;23.90;15.60;;;-3276.40;92.20;;;;;;5072589;28;20037;-77
2021/12/23 03:43:42;;;;;;;22.92;15.77;;;-3276.40;92.10;;;;;;5089613;28;20051;-77
2021/12/23 03:46:08;;;;;;;24.35;16.10;;;-3276.40;92.20;;;;;;5071749;28;20071;-79
2021/12/23 03:48:33;;;;;;;25.58;15.43;;;-3276.40;92.10;;;;;;5055594;28;20076;-78
2021/12/23 03:50:59;;;;;;;25.10;16.67;;;-3276.50;92.20;;;;;;5072218;28;20040;-78
2021/12/23 03:53:25;;;;;;;20.92;14.27;;;-3276.50;92.10;;;;;;5055784;28;20047;-80
2021/12/23 03:55:50;;;;;;;22.15;15.90;;;-3276.40;92.10;;;;;;5072038;28;20076;-78
2021/12/23 03:58:16;;;;;;;22.70;15.68;;;-3276.40;92.00;;;;;;5055710;28;20037;-80
2021/12/23 04:00:43;;;;;;;25.30;16.67;;;-3276.50;92.10;;;;;;5072005;28;20055;-77
2021/12/23 04:03:09;;;;;;;24.65;16.00;;;-3276.50;92.00;;;;;;5055636;28;20044;-78
2021/12/23 04:05:35;;;;;;;25.10;16.88;;;-3276.50;92.00;;;;;;5072377;28;20040;-80
2021/12/23 04:08:02;;;;;;;24.48;15.73;;;-3276.50;91.90;;;;;;5072119;28;20033;-77
2021/12/23 04:10:28;;;;;;;26.20;16.17;;;-3276.50;92.00;;;;;;5038964;28;20032;-79
2021/12/23 04:12:54;;;;;;;27.00;18.05;;;-3276.50;92.00;;;;;;5071702;28;20047;-81
2021/12/23 04:15:20;;;;;;;23.88;15.77;;;-3276.40;92.10;;;;;;5072088;28;20040;-77
2021/12/23 04:17:47;;;;;;;22.35;15.25;;;-3276.50;92.10;;;;;;5072004;28;20037;-79
2021/12/23 04:20:21;;;;;;;23.88;15.63;;;-3276.50;92.00;;;;;;5071581;28;20455;-77
2021/12/23 04:22:50;;;;;;;25.23;16.73;;;-3276.50;92.00;;;;;;5055477;28;20065;-78
2021/12/23 04:25:18;;;;;;;23.98;16.00;;;-3276.60;91.80;;;;;;5071920;28;20388;-76
2021/12/23 04:27:46;;;;;;;24.50;16.40;;;-3276.60;91.80;;;;;;5071670;28;20040;-78
2021/12/23 04:30:12;;;;;;;28.17;16.45;;;-3276.60;91.60;;;;;;5055642;28;20045;-79
2021/12/23 04:32:39;;;;;;;27.25;17.42;;;-3276.70;91.80;;;;;;5054934;28;20036;-77
2021/12/23 04:35:06;;;;;;;23.45;17.42;;;-3276.70;91.50;;;;;;5072052;28;20048;-79
2021/12/23 04:37:31;;;;;;;24.33;16.10;;;-3276.70;91.40;;;;;;5071882;28;20221;-79
2021/12/23 04:39:57;;;;;;;24.73;15.85;;;-3276.70;91.20;;;;;;5071723;28;20040;-79
2021/12/23 04:42:23;;;;;;;25.23;17.90;;;-3276.70;91.20;;;;;;5055388;28;20361;-78
2021/12/23 04:44:48;;;;;;;26.48;16.60;;;-3276.70;91.10;;;;;;5055089;28;20190;-79
2021/12/23 04:47:14;;;;;;;24.95;16.00;;;-3276.70;91.20;;;;;;5054798;28;20036;-78
2021/12/23 04:49:40;;;;;;;26.75;18.35;;;-3276.70;91.20;;;;;;5054350;28;20037;-77
2021/12/23 04:52:06;;;;;;;28.50;18.58;;;-3276.70;91.10;;;;;;5070440;28;20489;-77
2021/12/23 04:54:32;;;;;;;30.20;18.45;;;-3276.70;91.30;;;;;;5070621;28;20074;-77
2021/12/23 04:56:58;;;;;;;27.65;17.45;;;-3276.70;91.30;;;;;;5072079;28;20128;-77
2021/12/23 04:59:23;;;;;;;26.23;16.55;;;-3276.70;91.20;;;;;;5074626;28;20463;-78
2021/12/23 05:01:50;;;;;;;28.52;17.13;;;-3276.70;91.20;;;;;;5075058;28;20487;-78
2021/12/23 05:04:16;;;;;;;28.38;17.70;;;-3276.70;91.10;;;;;;5058432;28;20040;-78
2021/12/23 05:06:41;;;;;;;28.45;17.85;;;-3276.70;91.30;;;;;;5075002;28;20043;-78
2021/12/23 05:09:07;;;;;;;24.02;16.65;;;-3276.70;91.30;;;;;;5074959;28;20040;-80
2021/12/23 05:11:33;;;;;;;26.67;18.05;;;-3276.70;91.30;;;;;;5074933;28;20083;-79
2021/12/23 05:13:59;;;;;;;27.85;17.73;;;-3276.70;91.30;;;;;;5058807;28;20127;-77
2021/12/23 05:16:24;;;;;;;26.70;17.98;;;-3276.70;91.30;;;;;;5058431;28;20041;-78
2021/12/23 05:18:50;;;;;;;26.27;18.10;;;0.00;91.30;;;;;;5074970;28;20125;-79
2021/12/23 05:21:16;;;;;;;24.10;16.38;;;-3276.70;91.30;;;;;;5075112;28;20035;-78
2021/12/23 05:23:42;;;;;;;30.10;20.25;;;0.00;91.30;;;;;;5058593;28;20098;-79
2021/12/23 05:26:08;;;;;;;28.17;17.92;;;-3276.70;91.40;;;;;;5058136;28;20032;-77
2021/12/23 05:28:34;;;;;;;24.60;16.80;;;-3276.70;91.40;;;;;;5075080;28;20041;-78
2021/12/23 05:31:00;;;;;;;25.65;17.35;;;-3276.70;91.50;;;;;;5058162;28;20082;-79
2021/12/23 05:33:26;;;;;;;27.98;18.70;;;0.00;91.60;;;;;;5074481;28;20044;-77
2021/12/23 05:35:52;;;;;;;28.98;19.60;;;-3276.70;91.70;;;;;;5075084;28;20044;-78
2021/12/23 05:38:18;;;;;;;28.50;18.70;;;0.00;91.50;;;;;;5074821;28;20044;-76
2021/12/23 05:40:44;;;;;;;26.25;17.95;;;-3276.70;91.40;;;;;;5057968;28;20503;-78
2021/12/23 05:43:09;;;;;;;26.60;17.98;;;0.00;91.40;;;;;;5058282;28;20038;-79
2021/12/23 05:45:35;;;;;;;28.63;18.58;;;0.00;91.20;;;;;;5057996;28;20037;-79
2021/12/23 05:48:01;;;;;;;27.80;18.30;;;0.00;91.10;;;;;;5058278;28;20123;-79
2021/12/23 05:50:27;;;;;;;25.95;17.65;;;0.00;91.20;;;;;;5074701;28;20033;-76
2021/12/23 05:52:53;;;;;;;27.02;18.40;;;0.00;91.20;;;;;;5058236;28;20058;-76
2021/12/23 05:55:21;;;;;;;25.30;18.15;;;0.00;91.20;;;;;;5074655;28;20119;-77
2021/12/23 05:57:48;;;;;;;30.55;17.40;;;0.00;91.30;;;;;;5074183;28;20072;-77
2021/12/23 06:00:26;;;;;;;27.88;18.05;;;0.00;91.20;;;;;;5057546;28;20128;-76
2021/12/23 06:02:53;;;;;;;24.98;16.70;;;0.00;90.80;;;;;;5073814;28;20099;-76
2021/12/23 06:05:19;;;;;;;29.98;18.25;;;0.00;90.80;;;;;;5074314;28;20032;-78
2021/12/23 06:07:46;;;;;;;26.40;18.77;;;0.00;90.90;;;;;;5073734;28;20120;-78
2021/12/23 06:10:13;;;;;;;32.63;19.95;;;0.00;90.90;;;;;;5074173;28;20037;-78
2021/12/23 06:12:39;;;;;;;29.90;18.95;;;0.00;90.80;;;;;;5074231;28;20075;-79
2021/12/23 06:15:06;;;;;;;30.88;19.08;;;0.00;90.80;;;;;;5057553;28;20044;-77
2021/12/23 06:17:32;;;;;;;26.38;17.00;;;0.00;90.80;;;;;;5073961;28;20463;-78
2021/12/23 06:19:58;;;;;;;27.75;18.00;;;0.00;91.00;;;;;;5057349;28;20444;-80
2021/12/23 06:22:24;;;;;;;31.08;19.00;;;0.00;91.10;;;;;;5073766;28;20132;-76
2021/12/23 06:24:50;;;;;;;27.27;17.88;;;0.00;91.10;;;;;;5057225;28;20040;-77
2021/12/23 06:27:17;;;;;;;30.60;19.15;;;0.00;91.10;;;;;;5074330;28;20076;-77
2021/12/23 06:29:43;;;;;;;27.33;17.05;;;0.00;91.00;;;;;;5057325;28;20482;-77
2021/12/23 06:32:09;;;;;;;29.75;18.27;;;0.00;91.00;;;;;;5073976;28;20044;-78
2021/12/23 06:34:36;;;;;;;29.55;19.38;;;0.00;91.00;;;;;;5073693;28;20432;-79
2021/12/23 06:37:03;;;;;;;33.25;20.02;;;0.00;91.10;;;;;;5073506;28;20101;-76
2021/12/23 06:39:31;;;;;;;28.95;19.80;;;0.00;91.30;;;;;;5056695;28;20040;-77
2021/12/23 06:41:56;;;;;;;32.17;19.85;;;0.00;91.40;;;;;;5073549;28;20080;-78
2021/12/23 06:44:23;;;;;;;32.70;18.50;;;0.00;91.40;;;;;;5073686;28;20087;-77
2021/12/23 06:46:49;;;;;;;30.83;19.52;;;0.00;91.50;;;;;;5056812;28;20068;-78
2021/12/23 06:49:15;;;;;;;27.27;17.58;;;0.00;91.50;;;;;;5073519;28;20437;-78
2021/12/23 06:51:41;;;;;;;32.00;19.05;;;0.00;91.40;;;;;;5056986;28;20036;-77
2021/12/23 06:54:12;;;;;;;27.85;17.90;;;0.00;91.20;;;;;;5073450;28;20075;-76
2021/12/23 06:56:38;;;;;;;29.88;18.85;;;0.00;91.40;;;;;;5057600;28;20040;-79
2021/12/23 06:59:04;;;;;;;31.80;20.50;;;0.00;91.30;;;;;;5073004;28;20116;-80
2021/12/23 07:01:30;;;;;;;30.40;19.85;;;0.00;91.50;;;;;;5056455;28;20055;-77
2021/12/23 07:04:16;;;;;;;30.60;20.23;;;0.00;91.50;;;;;;5073182;28;20048;-77
2021/12/23 07:09:46;;;;;;;25.53;14.73;;;0.00;91.60;;;;;;5055689;28;20146;-79
2021/12/23 07:12:12;;;;;;;30.25;20.02;;;0.00;91.80;;;;;;5039000;28;20526;-77
2021/12/23 07:14:40;;;;;;;30.95;20.17;;;0.00;91.90;;;;;;5061581;28;20135;-77
2021/12/23 07:17:07;;;;;;;33.60;19.73;;;0.00;91.90;;;;;;5072943;28;20079;-78
2021/12/23 07:19:33;;;;;;;30.77;20.38;;;0.00;91.90;;;;;;5055172;28;20090;-78
2021/12/23 07:21:59;;;;;;;31.40;19.23;;;0.00;91.90;;;;;;5039639;28;20124;-79
2021/12/23 07:24:25;;;;;;;31.88;21.35;;;0.00;91.80;;;;;;5055801;28;20493;-78
2021/12/23 07:26:50;;;;;;;28.05;18.00;;;0.00;91.80;;;;;;5072576;28;20036;-79
2021/12/23 07:29:16;;;;;;;32.65;21.48;;;0.00;91.80;;;;;;5056296;28;20128;-78
2021/12/23 07:31:42;;;;;;;30.63;19.90;;;0.00;91.90;;;;;;5072395;28;20455;-78
2021/12/23 07:34:08;;;;;;;33.97;20.10;;;0.10;91.80;;;;;;5072254;28;20040;-80
2021/12/23 07:36:35;;;;;;;28.80;18.60;;;0.10;91.60;;;;;;5055695;28;20051;-79
2021/12/23 07:39:01;;;;;;;35.33;21.90;;;0.10;91.70;;;;;;5072130;28;20527;-79
2021/12/23 07:41:27;;;;;;;36.00;23.52;;;0.10;91.70;;;;;;5072758;28;20522;-78
2021/12/23 07:44:02;;;;;;;32.28;21.48;;;0.10;91.60;;;;;;5072626;28;20041;-80
2021/12/23 07:46:31;;;;;;;33.50;22.35;;;0.10;91.70;;;;;;5072811;28;20037;-78
2021/12/23 07:48:57;;;;;;;35.90;23.50;;;0.10;91.60;;;;;;5072902;28;20055;-77
2021/12/23 07:51:24;;;;;;;34.17;23.10;;;0.10;91.90;;;;;;5055778;28;20523;-78
2021/12/23 07:53:50;;;;;;;38.88;24.10;;;0.10;92.10;;;;;;5055591;28;20040;-79
2021/12/23 07:56:17;;;;;;;38.72;25.65;;;0.10;92.00;;;;;;5055763;28;20051;-79
2021/12/23 07:58:43;;;;;;;35.30;22.73;;;0.10;92.00;;;;;;5038944;28;20040;-78
2021/12/23 08:01:08;;;;;;;36.30;24.08;;;0.10;91.90;;;;;;5055321;28;20400;-77
2021/12/23 08:03:34;;;;;;;35.90;22.45;;;0.10;92.20;;;;;;5072195;28;20419;-80
2021/12/23 08:06:00;;;;;;;40.25;25.30;;;0.10;92.20;;;;;;5039057;28;20050;-76
2021/12/23 08:08:26;;;;;;;38.45;23.52;;;0.10;92.20;;;;;;5072202;28;20049;-80
2021/12/23 08:10:51;;;;;;;40.17;27.00;;;0.10;92.40;;;;;;5055474;28;20127;-75
2021/12/23 08:13:17;;;;;;;39.30;25.85;;;0.10;92.50;;;;;;5071791;28;20036;-78
2021/12/23 08:15:43;;;;;;;41.17;26.10;;;0.10;92.40;;;;;;5072035;28;20080;-76
2021/12/23 08:18:09;;;;;;;40.75;25.23;;;0.10;92.60;;;;;;5071553;28;20076;-77
2021/12/23 08:20:35;;;;;;;42.20;26.17;;;0.10;92.50;;;;;;5072155;28;20458;-79
2021/12/23 08:23:01;;;;;;;42.13;27.83;;;0.10;92.70;;;;;;5071992;28;20040;-78
2021/12/23 08:25:27;;;;;;;40.90;26.85;;;0.10;92.50;;;;;;5072367;28;20040;-77
2021/12/23 08:27:53;;;;;;;43.53;26.15;;;0.10;93.00;;;;;;5055869;28;20472;-77
2021/12/23 08:30:20;;;;;;;43.17;28.42;;;0.10;92.80;;;;;;5055579;28;20040;-79
2021/12/23 08:32:47;;;;;;;42.85;27.05;;;0.10;92.80;;;;;;5075885;28;20124;-78
2021/12/23 08:35:14;;;;;;;47.67;28.02;;;0.10;93.20;;;;;;5076065;28;20392;-79
2021/12/23 08:37:44;;;;;;;43.05;27.25;;;0.10;93.10;;;;;;5059260;28;20075;-79
2021/12/23 08:40:10;;;;;;;46.00;28.83;;;0.20;92.90;;;;;;5042590;28;20048;-77
2021/12/23 08:42:36;;;;;;;48.60;28.90;;;0.10;93.10;;;;;;5075311;28;20154;-78
2021/12/23 08:45:04;;;;;;;45.38;28.08;;;0.10;93.30;;;;;;5042516;28;20480;-79
2021/12/23 08:47:30;;;;;;;45.25;28.50;;;0.10;93.50;;;;;;5075929;28;20048;-77
2021/12/23 08:49:56;;;;;;;44.85;29.15;;;0.10;93.90;;;;;;5075462;28;20055;-78
2021/12/23 08:52:22;;;;;;;47.22;29.50;;;0.10;93.90;;;;;;5075269;28;20131;-79
2021/12/23 08:54:47;;;;;;;48.67;29.55;;;0.10;93.80;;;;;;5075377;28;20518;-78
2021/12/23 08:57:13;;;;;;;50.67;29.67;;;0.10;94.00;;;;;;5058640;28;20076;-79
2021/12/23 08:59:39;;;;;;;52.97;32.28;;;0.10;94.10;;;;;;5058966;28;20094;-79
2021/12/23 09:02:05;;;;;;;50.13;29.75;;;0.10;94.20;;;;;;5058458;28;20446;-80
2021/12/23 09:04:31;;;;;;;54.58;29.73;;;0.10;93.90;;;;;;5058818;28;20102;-81
2021/12/23 09:06:57;;;;;;;53.08;31.67;;;0.20;94.30;;;;;;5059029;28;20127;-78
2021/12/23 09:09:24;;;;;;;54.50;31.85;;;0.10;94.30;;;;;;5075264;28;20560;-80
2021/12/23 09:11:51;;;;;;;52.75;32.13;;;0.10;94.80;;;;;;5058138;28;20044;-79
2021/12/23 09:14:17;;;;;;;49.90;31.58;;;0.10;95.10;;;;;;5074362;28;20043;-77
2021/12/23 09:16:43;;;;;;;53.88;32.35;;;0.10;95.00;;;;;;5073992;28;20045;-81
2021/12/23 09:19:09;;;;;;;57.92;33.78;;;0.20;95.20;;;;;;5073913;28;20046;-79
2021/12/23 09:21:36;;;;;;;57.30;33.42;;;0.20;95.10;;;;;;5057671;28;20086;-79
2021/12/23 09:24:03;;;;;;;59.85;33.55;;;0.20;94.90;;;;;;5074128;28;20048;-79
2021/12/23 09:26:33;;;;;;;61.20;35.55;;;0.20;94.90;;;;;;5074230;28;20547;-79
2021/12/23 09:29:12;;;;;;;61.70;36.42;;;0.20;95.40;;;;;;5057900;28;20075;-80
2021/12/23 09:34:32;;;;;;;59.83;35.60;;;0.20;95.60;;;;;;5074181;28;20101;-80
2021/12/23 09:37:09;;;;;;;59.03;34.88;;;0.10;95.60;;;;;;5059363;28;20500;-77
2021/12/23 09:39:35;;;;;;;66.20;37.60;;;0.10;95.60;;;;;;5074169;28;20131;-80
2021/12/23 09:42:03;;;;;;;68.53;37.40;;;0.10;95.70;;;;;;5073602;28;20040;-81
2021/12/23 09:44:30;;;;;;;70.38;38.75;;;0.10;95.80;;;;;;5056512;28;20500;-78
2021/12/23 09:47:03;;;;;;;65.03;36.95;;;0.20;95.60;;;;;;5073954;28;20037;-77
2021/12/23 09:49:37;;;;;;;77.15;39.13;;;0.20;95.20;;;;;;5073946;28;20109;-78
2021/12/23 09:52:04;;;;;;;68.57;37.10;;;0.20;95.50;;;;;;5057118;28;20032;-79
2021/12/23 09:54:30;;;;;;;75.32;39.47;;;0.20;95.40;;;;;;5057156;28;20072;-80
2021/12/23 09:56:57;;;;;;;68.72;36.28;;;0.10;95.80;;;;;;5073486;28;20067;-79
2021/12/23 09:59:27;;;;;;;76.05;38.95;;;0.20;95.70;;;;;;5073571;28;20043;-80
2021/12/23 10:01:54;;;;;;;78.68;42.22;;;0.20;95.60;;;;;;5073244;28;20353;-80
2021/12/23 10:04:20;;;;;;;86.93;45.13;;;0.20;95.90;;;;;;5057166;28;20037;-78
2021/12/23 10:06:47;;;;;;;84.18;43.30;;;0.20;96.00;;;;;;5073586;28;20480;-80
2021/12/23 10:09:20;;;;;;;82.90;42.28;;;0.20;96.00;;;;;;5073695;28;20040;-79
2021/12/23 10:12:37;;;;;;;84.45;41.42;;;0.20;95.80;;;;;;5073694;28;20120;-79
2021/12/23 10:31:07;;;;;;;96.35;46.53;;;0.20;96.20;;;;;;5073065;28;20109;-78
2021/12/23 10:38:43;;;;;;;118.97;53.03;;;0.20;96.30;;;;;;5073263;28;20076;-79
2021/12/23 10:41:25;;;;;;;114.63;49.92;;;0.20;96.50;;;;;;5072866;28;20037;-79
2021/12/23 10:44:00;;;;;;;103.38;45.40;;;0.30;96.30;;;;;;5072962;28;20036;-78
2021/12/23 10:46:38;;;;;;;111.70;52.25;;;0.30;96.30;;;;;;5072978;28;20066;-78
2021/12/23 10:52:09;;;;;;;108.03;47.55;;;0.40;96.40;;;;;;5072494;28;20127;-79
2021/12/23 11:00:12;;;;;;;106.32;48.80;;;0.40;96.70;;;;;;5072665;28;20077;-77
2021/12/23 11:02:40;;;;;;;104.95;46.55;;;0.40;96.80;;;;;;5055824;28;20048;-80
2021/12/23 11:05:23;;;;;;;98.22;46.25;;;0.40;96.50;;;;;;5072862;28;20389;-77
2021/12/23 11:10:39;;;;;;;102.30;46.58;;;0.40;96.50;;;;;;5072519;28;20044;-79
2021/12/23 11:38:09;;;;;;;87.85;43.38;;;0.50;96.80;;;;;;5072270;28;20435;-78
2021/12/23 11:40:52;;;;;;;80.97;40.63;;;0.60;96.90;;;;;;5071966;28;20048;-78
2021/12/23 11:45:48;;;;;;;92.85;42.38;;;0.60;96.90;;;;;;5071962;28;20044;-79
2021/12/23 11:48:15;;;;;;;102.05;47.13;;;0.60;96.90;;;;;;5072213;28;20037;-78
2021/12/23 11:51:30;;;;;;;90.75;44.55;;;0.60;96.90;;;;;;5071887;28;20047;-79
2021/12/23 11:53:30;;;;;;;100.78;46.58;;;0.70;96.90;;;;;;5088389;28;20041;-80
2021/12/23 11:55:56;;;;;;;99.53;48.03;;;0.70;96.80;;;;;;5055175;28;20100;-81
2021/12/23 11:58:26;;;;;;;96.07;46.25;;;0.70;96.90;;;;;;5071684;28;20044;-79
2021/12/23 12:01:11;;;;;;;97.30;45.97;;;0.80;96.90;;;;;;5055033;28;20531;-81
2021/12/23 12:03:57;;;;;;;;;;;0.90;96.80;;;;;;5055503;28;20052;-79
2021/12/23 12:06:30;;;;;;;94.38;43.78;;;0.90;96.80;;;;;;5071348;28;19920;-79
2021/12/23 12:09:11;;;;;;;96.25;45.90;;;1.00;96.60;;;;;;5072013;28;20388;-79
2021/12/23 12:11:37;;;;;;;95.40;45.13;;;1.00;96.70;;;;;;5054849;28;20036;-79
2021/12/23 12:14:03;;;;;;;99.07;45.13;;;1.00;96.50;;;;;;5071580;28;20492;-79
2021/12/23 12:16:33;;;;;;;106.80;48.50;;;1.00;96.60;;;;;;5071772;28;20178;-78
2021/12/23 12:19:00;;;;;;;94.55;42.97;;;1.00;96.90;;;;;;5054912;28;20047;-79
2021/12/23 12:21:31;;;;;;;104.20;47.30;;;1.10;96.70;;;;;;5071798;28;20040;-82
2021/12/23 12:24:20;;;;;;;93.38;44.47;;;1.10;96.80;;;;;;5071804;28;20115;-81
2021/12/23 12:26:57;;;;;;;96.65;44.10;;;1.10;96.70;;;;;;5071787;28;20090;-78
2021/12/23 12:29:34;;;;;;;92.45;44.72;;;1.10;96.60;;;;;;5071809;28;20551;-81
2021/12/23 12:32:00;;;;;;;92.65;44.70;;;1.10;96.50;;;;;;5071427;28;20078;-79
2021/12/23 12:34:34;;;;;;;94.88;43.95;;;1.20;96.50;;;;;;5071697;28;20040;-79
2021/12/23 12:37:03;;;;;;;99.95;46.55;;;1.30;96.20;;;;;;5071426;28;20040;-81
2021/12/23 12:39:40;;;;;;;91.20;45.10;;;1.20;96.50;;;;;;5071448;28;20048;-81
2021/12/23 12:42:10;;;;;;;98.10;45.55;;;1.30;96.20;;;;;;5071737;28;20040;-80
2021/12/23 12:45:01;;;;;;;105.80;47.83;;;1.30;96.10;;;;;;5071405;28;20040;-80
2021/12/23 12:47:31;;;;;;;92.30;45.50;;;1.40;96.10;;;;;;5054883;28;20046;-79
2021/12/23 12:50:14;;;;;;;94.90;44.30;;;1.30;96.30;;;;;;5071335;28;20070;-80
2021/12/23 12:52:46;;;;;;;95.95;48.25;;;1.30;96.20;;;;;;5054788;28;20072;-79
2021/12/23 12:55:18;;;;;;;94.00;44.45;;;1.40;96.40;;;;;;5071241;28;20048;-80
2021/12/23 12:57:50;;;;;;;94.70;43.42;;;1.30;96.50;;;;;;5071456;28;20044;-79
2021/12/23 13:00:22;;;;;;;80.30;40.25;;;1.40;96.20;;;;;;5071086;28;20097;-80
2021/12/23 13:02:50;;;;;;;89.03;44.33;;;1.40;96.20;;;;;;5054231;28;20053;-78
2021/12/23 13:05:23;;;;;;;92.95;46.95;;;1.40;96.30;;;;;;5071149;28;20064;-79
2021/12/23 13:07:49;;;;;;;93.05;44.10;;;1.40;96.40;;;;;;5054431;28;20044;-79
2021/12/23 13:10:19;;;;;;;92.22;42.33;;;1.50;96.20;;;;;;5071169;28;20466;-79
2021/12/23 13:12:50;;;;;;;100.78;44.35;;;1.40;96.30;;;;;;5071041;28;20048;-80
2021/12/23 13:15:22;;;;;;;94.22;46.05;;;1.40;96.40;;;;;;5054353;28;20124;-81
2021/12/23 13:18:08;;;;;;;102.38;46.22;;;1.40;96.40;;;;;;5068606;28;20495;-83
2021/12/23 13:20:56;;;;;;;88.30;41.83;;;1.40;96.60;;;;;;5071016;28;20425;-82
2021/12/23 13:23:22;;;;;;;102.93;47.05;;;1.50;96.50;;;;;;5052254;28;20059;-82
2021/12/23 13:25:52;;;;;;;98.18;46.50;;;1.50;96.70;;;;;;5052291;28;20044;-81
2021/12/23 13:28:35;;;;;;;97.30;45.75;;;1.50;96.80;;;;;;5051504;28;20072;-81
2021/12/23 13:31:04;;;;;;;87.32;40.03;;;1.50;96.70;;;;;;5068988;28;20066;-83
2021/12/23 13:33:29;;;;;;;97.15;45.55;;;1.60;96.40;;;;;;5052466;28;20044;-82
2021/12/23 13:35:56;;;;;;;94.72;44.67;;;1.50;96.60;;;;;;5069364;28;20044;-82